sensor_id;sensor_type;location;lat;lon;timestamp;P1;durP1;ratioP1;P2;durP2;ratioP2
6626;SDS011;3349;49.830;8.748;2023-04-24T00:01:42;1.88;;;1.20;;
6626;SDS011;3349;49.830;8.748;2023-04-24T00:04:09;2.47;;;1.17;;
6626;SDS011;3349;49.830;8.748;2023-04-24T00:06:39;2.45;;;1.25;;
6626;SDS011;3349;49.830;8.748;2023-04-24T00:09:09;2.22;;;1.40;;
6626;SDS011;3349;49.830;8.748;2023-04-24T00:11:36;2.13;;;1.20;;
6626;SDS011;3349;49.830;8.748;2023-04-24T00:14:03;3.38;;;1.25;;
6626;SDS011;3349;49.830;8.748;2023-04-24T00:16:29;3.63;;;1.30;;
6626;SDS011;3349;49.830;8.748;2023-04-24T00:18:56;5.85;;;1.83;;
6626;SDS011;3349;49.830;8.748;2023-04-24T00:21:23;6.18;;;3.67;;
6626;SDS011;3349;49.830;8.748;2023-04-24T00:23:50;3.22;;;2.50;;
6626;SDS011;3349;49.830;8.748;2023-04-24T00:26:18;3.15;;;1.90;;
6626;SDS011;3349;49.830;8.748;2023-04-24T00:28:45;3.53;;;2.05;;
6626;SDS011;3349;49.830;8.748;2023-04-24T00:31:12;4.18;;;2.30;;
6626;SDS011;3349;49.830;8.748;2023-04-24T00:33:38;2.00;;;1.60;;
6626;SDS011;3349;49.830;8.748;2023-04-24T00:36:05;3.22;;;1.60;;
6626;SDS011;3349;49.830;8.748;2023-04-24T00:38:32;2.90;;;1.35;;
6626;SDS011;3349;49.830;8.748;2023-04-24T00:40:59;3.13;;;1.60;;
6626;SDS011;3349;49.830;8.748;2023-04-24T00:43:27;2.40;;;1.67;;
6626;SDS011;3349;49.830;8.748;2023-04-24T00:45:54;2.70;;;1.50;;
6626;SDS011;3349;49.830;8.748;2023-04-24T00:48:20;1.95;;;1.10;;
6626;SDS011;3349;49.830;8.748;2023-04-24T00:50:47;3.13;;;1.33;;
6626;SDS011;3349;49.830;8.748;2023-04-24T00:53:14;2.75;;;1.48;;
6626;SDS011;3349;49.830;8.748;2023-04-24T00:55:41;1.90;;;1.30;;
6626;SDS011;3349;49.830;8.748;2023-04-24T00:58:08;1.88;;;1.23;;
6626;SDS011;3349;49.830;8.748;2023-04-24T01:00:36;1.60;;;1.27;;
6626;SDS011;3349;49.830;8.748;2023-04-24T01:03:03;2.45;;;1.20;;
6626;SDS011;3349;49.830;8.748;2023-04-24T01:05:32;2.92;;;1.27;;
6626;SDS011;3349;49.830;8.748;2023-04-24T01:07:59;5.88;;;1.60;;
6626;SDS011;3349;49.830;8.748;2023-04-24T01:10:26;2.72;;;1.55;;
6626;SDS011;3349;49.830;8.748;2023-04-24T01:12:55;4.30;;;1.60;;
6626;SDS011;3349;49.830;8.748;2023-04-24T01:15:22;3.00;;;1.52;;
6626;SDS011;3349;49.830;8.748;2023-04-24T01:17:50;3.97;;;1.30;;
6626;SDS011;3349;49.830;8.748;2023-04-24T01:20:17;5.72;;;1.30;;
6626;SDS011;3349;49.830;8.748;2023-04-24T01:22:45;3.15;;;1.60;;
6626;SDS011;3349;49.830;8.748;2023-04-24T01:25:12;2.75;;;1.52;;
6626;SDS011;3349;49.830;8.748;2023-04-24T01:27:38;3.45;;;1.48;;
6626;SDS011;3349;49.830;8.748;2023-04-24T01:30:06;3.75;;;1.50;;
6626;SDS011;3349;49.830;8.748;2023-04-24T01:32:33;4.32;;;1.70;;
6626;SDS011;3349;49.830;8.748;2023-04-24T01:35:01;2.22;;;1.20;;
6626;SDS011;3349;49.830;8.748;2023-04-24T01:37:28;3.92;;;1.48;;
6626;SDS011;3349;49.830;8.748;2023-04-24T01:39:58;2.05;;;1.40;;
6626;SDS011;3349;49.830;8.748;2023-04-24T01:42:25;3.47;;;1.48;;
6626;SDS011;3349;49.830;8.748;2023-04-24T01:44:52;3.70;;;1.70;;
6626;SDS011;3349;49.830;8.748;2023-04-24T01:47:19;1.90;;;1.40;;
6626;SDS011;3349;49.830;8.748;2023-04-24T01:49:47;4.78;;;1.50;;
6626;SDS011;3349;49.830;8.748;2023-04-24T01:52:15;3.90;;;1.45;;
6626;SDS011;3349;49.830;8.748;2023-04-24T01:54:42;2.42;;;1.35;;
6626;SDS011;3349;49.830;8.748;2023-04-24T01:57:10;3.38;;;1.30;;
6626;SDS011;3349;49.830;8.748;2023-04-24T01:59:37;2.33;;;1.20;;
6626;SDS011;3349;49.830;8.748;2023-04-24T02:02:04;2.10;;;1.08;;
6626;SDS011;3349;49.830;8.748;2023-04-24T02:04:30;1.45;;;0.93;;
6626;SDS011;3349;49.830;8.748;2023-04-24T02:06:57;3.55;;;1.20;;
6626;SDS011;3349;49.830;8.748;2023-04-24T02:09:24;3.05;;;1.35;;
6626;SDS011;3349;49.830;8.748;2023-04-24T02:11:51;3.50;;;1.30;;
6626;SDS011;3349;49.830;8.748;2023-04-24T02:14:19;1.90;;;1.30;;
6626;SDS011;3349;49.830;8.748;2023-04-24T02:16:46;2.50;;;1.20;;
6626;SDS011;3349;49.830;8.748;2023-04-24T02:19:13;3.63;;;1.55;;
6626;SDS011;3349;49.830;8.748;2023-04-24T02:21:39;4.20;;;1.70;;
6626;SDS011;3349;49.830;8.748;2023-04-24T02:24:06;4.47;;;1.50;;
6626;SDS011;3349;49.830;8.748;2023-04-24T02:26:33;5.22;;;1.63;;
6626;SDS011;3349;49.830;8.748;2023-04-24T02:28:59;2.15;;;1.52;;
6626;SDS011;3349;49.830;8.748;2023-04-24T02:31:27;2.22;;;1.27;;
6626;SDS011;3349;49.830;8.748;2023-04-24T02:33:54;3.15;;;1.42;;
6626;SDS011;3349;49.830;8.748;2023-04-24T02:36:21;6.35;;;1.60;;
6626;SDS011;3349;49.830;8.748;2023-04-24T02:38:48;2.13;;;1.30;;
6626;SDS011;3349;49.830;8.748;2023-04-24T02:41:14;3.17;;;1.73;;
6626;SDS011;3349;49.830;8.748;2023-04-24T02:43:41;4.57;;;1.75;;
6626;SDS011;3349;49.830;8.748;2023-04-24T02:46:08;4.90;;;1.33;;
6626;SDS011;3349;49.830;8.748;2023-04-24T02:48:36;3.50;;;1.45;;
6626;SDS011;3349;49.830;8.748;2023-04-24T02:51:03;4.95;;;1.67;;
6626;SDS011;3349;49.830;8.748;2023-04-24T02:53:29;3.60;;;1.50;;
6626;SDS011;3349;49.830;8.748;2023-04-24T02:55:56;3.92;;;1.60;;
6626;SDS011;3349;49.830;8.748;2023-04-24T02:58:23;3.20;;;1.65;;
6626;SDS011;3349;49.830;8.748;2023-04-24T03:00:52;2.63;;;1.40;;
6626;SDS011;3349;49.830;8.748;2023-04-24T03:03:20;2.42;;;1.38;;
6626;SDS011;3349;49.830;8.748;2023-04-24T03:05:48;2.00;;;1.40;;
6626;SDS011;3349;49.830;8.748;2023-04-24T03:08:15;3.25;;;1.35;;
6626;SDS011;3349;49.830;8.748;2023-04-24T03:10:42;2.13;;;1.27;;
6626;SDS011;3349;49.830;8.748;2023-04-24T03:13:09;1.33;;;1.23;;
6626;SDS011;3349;49.830;8.748;2023-04-24T03:15:36;2.08;;;1.25;;
6626;SDS011;3349;49.830;8.748;2023-04-24T03:18:02;2.15;;;1.23;;
6626;SDS011;3349;49.830;8.748;2023-04-24T03:20:29;2.65;;;1.10;;
6626;SDS011;3349;49.830;8.748;2023-04-24T03:22:57;2.08;;;1.30;;
6626;SDS011;3349;49.830;8.748;2023-04-24T03:25:24;1.60;;;1.20;;
6626;SDS011;3349;49.830;8.748;2023-04-24T03:27:51;2.47;;;1.23;;
6626;SDS011;3349;49.830;8.748;2023-04-24T03:30:19;2.75;;;1.70;;
6626;SDS011;3349;49.830;8.748;2023-04-24T03:32:46;3.00;;;1.70;;
6626;SDS011;3349;49.830;8.748;2023-04-24T03:35:13;2.58;;;1.45;;
6626;SDS011;3349;49.830;8.748;2023-04-24T03:37:39;2.10;;;1.60;;
6626;SDS011;3349;49.830;8.748;2023-04-24T03:40:08;2.20;;;1.50;;
6626;SDS011;3349;49.830;8.748;2023-04-24T03:42:35;2.25;;;1.20;;
6626;SDS011;3349;49.830;8.748;2023-04-24T03:45:02;3.78;;;1.45;;
6626;SDS011;3349;49.830;8.748;2023-04-24T03:47:29;2.70;;;1.52;;
6626;SDS011;3349;49.830;8.748;2023-04-24T03:49:56;4.55;;;1.52;;
6626;SDS011;3349;49.830;8.748;2023-04-24T03:52:23;3.03;;;1.73;;
6626;SDS011;3349;49.830;8.748;2023-04-24T03:54:49;1.92;;;1.50;;
6626;SDS011;3349;49.830;8.748;2023-04-24T03:57:18;2.80;;;1.70;;
6626;SDS011;3349;49.830;8.748;2023-04-24T03:59:45;2.22;;;1.50;;
6626;SDS011;3349;49.830;8.748;2023-04-24T04:02:11;2.08;;;1.45;;
6626;SDS011;3349;49.830;8.748;2023-04-24T04:04:38;1.95;;;1.63;;
6626;SDS011;3349;49.830;8.748;2023-04-24T04:07:04;1.60;;;1.50;;
6626;SDS011;3349;49.830;8.748;2023-04-24T04:09:31;3.22;;;1.70;;
6626;SDS011;3349;49.830;8.748;2023-04-24T04:11:58;4.22;;;1.70;;
6626;SDS011;3349;49.830;8.748;2023-04-24T04:14:27;2.60;;;1.90;;
6626;SDS011;3349;49.830;8.748;2023-04-24T04:16:54;4.22;;;1.67;;
6626;SDS011;3349;49.830;8.748;2023-04-24T04:19:21;4.22;;;2.30;;
6626;SDS011;3349;49.830;8.748;2023-04-24T04:21:48;3.25;;;1.98;;
6626;SDS011;3349;49.830;8.748;2023-04-24T04:24:17;5.25;;;2.28;;
6626;SDS011;3349;49.830;8.748;2023-04-24T04:26:45;2.97;;;2.33;;
6626;SDS011;3349;49.830;8.748;2023-04-24T04:29:12;3.97;;;2.60;;
6626;SDS011;3349;49.830;8.748;2023-04-24T04:31:40;3.72;;;2.47;;
6626;SDS011;3349;49.830;8.748;2023-04-24T04:34:07;3.47;;;2.53;;
6626;SDS011;3349;49.830;8.748;2023-04-24T04:36:34;3.28;;;2.78;;
6626;SDS011;3349;49.830;8.748;2023-04-24T04:39:01;4.60;;;2.85;;
6626;SDS011;3349;49.830;8.748;2023-04-24T04:41:29;4.38;;;2.70;;
6626;SDS011;3349;49.830;8.748;2023-04-24T04:43:55;4.65;;;3.15;;
6626;SDS011;3349;49.830;8.748;2023-04-24T04:46:23;3.60;;;3.00;;
6626;SDS011;3349;49.830;8.748;2023-04-24T04:48:52;3.17;;;2.70;;
6626;SDS011;3349;49.830;8.748;2023-04-24T04:51:19;3.50;;;3.20;;
6626;SDS011;3349;49.830;8.748;2023-04-24T04:53:45;3.72;;;3.00;;
6626;SDS011;3349;49.830;8.748;2023-04-24T04:56:12;3.42;;;3.10;;
6626;SDS011;3349;49.830;8.748;2023-04-24T04:58:39;4.63;;;2.90;;
6626;SDS011;3349;49.830;8.748;2023-04-24T05:01:06;3.88;;;2.88;;
6626;SDS011;3349;49.830;8.748;2023-04-24T05:03:33;5.47;;;2.90;;
6626;SDS011;3349;49.830;8.748;2023-04-24T05:06:01;4.43;;;2.97;;
6626;SDS011;3349;49.830;8.748;2023-04-24T05:08:28;5.05;;;2.90;;
6626;SDS011;3349;49.830;8.748;2023-04-24T05:10:54;3.88;;;3.20;;
6626;SDS011;3349;49.830;8.748;2023-04-24T05:13:21;6.30;;;3.08;;
6626;SDS011;3349;49.830;8.748;2023-04-24T05:15:48;3.97;;;3.25;;
6626;SDS011;3349;49.830;8.748;2023-04-24T05:18:14;3.08;;;2.78;;
6626;SDS011;3349;49.830;8.748;2023-04-24T05:20:41;5.82;;;3.40;;
6626;SDS011;3349;49.830;8.748;2023-04-24T05:23:10;3.42;;;3.13;;
6626;SDS011;3349;49.830;8.748;2023-04-24T05:25:37;3.65;;;3.00;;
6626;SDS011;3349;49.830;8.748;2023-04-24T05:28:05;4.18;;;3.15;;
6626;SDS011;3349;49.830;8.748;2023-04-24T05:30:31;3.53;;;3.22;;
6626;SDS011;3349;49.830;8.748;2023-04-24T05:32:58;4.68;;;3.40;;
6626;SDS011;3349;49.830;8.748;2023-04-24T05:35:25;4.25;;;3.25;;
6626;SDS011;3349;49.830;8.748;2023-04-24T05:37:51;3.95;;;3.03;;
6626;SDS011;3349;49.830;8.748;2023-04-24T05:40:19;4.75;;;3.40;;
6626;SDS011;3349;49.830;8.748;2023-04-24T05:42:46;4.85;;;3.80;;
6626;SDS011;3349;49.830;8.748;2023-04-24T05:45:13;3.83;;;3.42;;
6626;SDS011;3349;49.830;8.748;2023-04-24T05:47:41;4.53;;;3.53;;
6626;SDS011;3349;49.830;8.748;2023-04-24T05:50:08;5.82;;;4.05;;
6626;SDS011;3349;49.830;8.748;2023-04-24T05:52:35;3.90;;;3.55;;
6626;SDS011;3349;49.830;8.748;2023-04-24T05:55:02;4.13;;;3.70;;
6626;SDS011;3349;49.830;8.748;2023-04-24T05:57:31;5.72;;;3.70;;
6626;SDS011;3349;49.830;8.748;2023-04-24T05:59:58;4.10;;;3.72;;
6626;SDS011;3349;49.830;8.748;2023-04-24T06:02:25;4.63;;;3.90;;
6626;SDS011;3349;49.830;8.748;2023-04-24T06:04:52;4.85;;;4.03;;
6626;SDS011;3349;49.830;8.748;2023-04-24T06:07:19;4.30;;;3.90;;
6626;SDS011;3349;49.830;8.748;2023-04-24T06:09:46;5.03;;;3.72;;
6626;SDS011;3349;49.830;8.748;2023-04-24T06:12:12;4.38;;;3.60;;
6626;SDS011;3349;49.830;8.748;2023-04-24T06:14:40;3.97;;;3.42;;
6626;SDS011;3349;49.830;8.748;2023-04-24T06:17:07;5.05;;;3.55;;
6626;SDS011;3349;49.830;8.748;2023-04-24T06:19:34;5.50;;;3.38;;
6626;SDS011;3349;49.830;8.748;2023-04-24T06:22:01;3.50;;;3.20;;
6626;SDS011;3349;49.830;8.748;2023-04-24T06:24:27;8.70;;;3.95;;
6626;SDS011;3349;49.830;8.748;2023-04-24T06:26:54;5.93;;;3.65;;
6626;SDS011;3349;49.830;8.748;2023-04-24T06:29:22;6.20;;;3.97;;
6626;SDS011;3349;49.830;8.748;2023-04-24T06:31:50;5.75;;;3.90;;
6626;SDS011;3349;49.830;8.748;2023-04-24T06:34:17;5.35;;;4.35;;
6626;SDS011;3349;49.830;8.748;2023-04-24T06:36:43;5.07;;;4.40;;
6626;SDS011;3349;49.830;8.748;2023-04-24T06:39:10;5.80;;;4.47;;
6626;SDS011;3349;49.830;8.748;2023-04-24T06:41:37;7.20;;;5.07;;
6626;SDS011;3349;49.830;8.748;2023-04-24T06:44:05;6.57;;;5.22;;
6626;SDS011;3349;49.830;8.748;2023-04-24T06:46:31;6.93;;;5.63;;
6626;SDS011;3349;49.830;8.748;2023-04-24T06:49:00;9.07;;;5.78;;
6626;SDS011;3349;49.830;8.748;2023-04-24T06:51:27;6.55;;;5.85;;
6626;SDS011;3349;49.830;8.748;2023-04-24T06:53:53;9.75;;;5.78;;
6626;SDS011;3349;49.830;8.748;2023-04-24T06:56:21;7.13;;;5.82;;
6626;SDS011;3349;49.830;8.748;2023-04-24T06:58:48;7.93;;;5.57;;
6626;SDS011;3349;49.830;8.748;2023-04-24T07:01:15;10.10;;;5.40;;
6626;SDS011;3349;49.830;8.748;2023-04-24T07:03:41;6.03;;;5.43;;
6626;SDS011;3349;49.830;8.748;2023-04-24T07:06:10;7.75;;;5.65;;
6626;SDS011;3349;49.830;8.748;2023-04-24T07:08:37;7.28;;;5.18;;
6626;SDS011;3349;49.830;8.748;2023-04-24T07:11:04;6.90;;;5.70;;
6626;SDS011;3349;49.830;8.748;2023-04-24T07:13:31;7.57;;;5.78;;
6626;SDS011;3349;49.830;8.748;2023-04-24T07:16:00;7.82;;;5.50;;
6626;SDS011;3349;49.830;8.748;2023-04-24T07:18:29;5.88;;;4.85;;
6626;SDS011;3349;49.830;8.748;2023-04-24T07:20:56;6.90;;;5.18;;
6626;SDS011;3349;49.830;8.748;2023-04-24T07:23:24;7.25;;;5.97;;
6626;SDS011;3349;49.830;8.748;2023-04-24T07:25:51;6.30;;;5.45;;
6626;SDS011;3349;49.830;8.748;2023-04-24T07:28:18;6.72;;;5.50;;
6626;SDS011;3349;49.830;8.748;2023-04-24T07:30:45;7.20;;;6.05;;
6626;SDS011;3349;49.830;8.748;2023-04-24T07:33:12;8.50;;;5.55;;
6626;SDS011;3349;49.830;8.748;2023-04-24T07:35:38;6.47;;;5.60;;
6626;SDS011;3349;49.830;8.748;2023-04-24T07:38:05;6.82;;;5.05;;
6626;SDS011;3349;49.830;8.748;2023-04-24T07:40:33;5.63;;;4.78;;
6626;SDS011;3349;49.830;8.748;2023-04-24T07:43:00;5.22;;;4.70;;
6626;SDS011;3349;49.830;8.748;2023-04-24T07:45:26;5.55;;;4.55;;
6626;SDS011;3349;49.830;8.748;2023-04-24T07:47:53;5.18;;;4.40;;
6626;SDS011;3349;49.830;8.748;2023-04-24T07:50:20;6.53;;;4.40;;
6626;SDS011;3349;49.830;8.748;2023-04-24T07:52:47;5.30;;;4.40;;
6626;SDS011;3349;49.830;8.748;2023-04-24T07:55:14;5.85;;;4.28;;
6626;SDS011;3349;49.830;8.748;2023-04-24T07:57:42;6.43;;;4.85;;
6626;SDS011;3349;49.830;8.748;2023-04-24T08:00:09;4.50;;;4.10;;
6626;SDS011;3349;49.830;8.748;2023-04-24T08:02:37;5.05;;;4.30;;
6626;SDS011;3349;49.830;8.748;2023-04-24T08:05:03;5.38;;;4.43;;
6626;SDS011;3349;49.830;8.748;2023-04-24T08:07:31;4.78;;;4.20;;
6626;SDS011;3349;49.830;8.748;2023-04-24T08:09:57;5.20;;;3.88;;
6626;SDS011;3349;49.830;8.748;2023-04-24T08:12:25;4.40;;;4.00;;
6626;SDS011;3349;49.830;8.748;2023-04-24T08:14:53;5.53;;;4.18;;
6626;SDS011;3349;49.830;8.748;2023-04-24T08:17:19;9.48;;;6.95;;
6626;SDS011;3349;49.830;8.748;2023-04-24T08:19:46;7.45;;;5.50;;
6626;SDS011;3349;49.830;8.748;2023-04-24T08:22:13;7.53;;;4.75;;
6626;SDS011;3349;49.830;8.748;2023-04-24T08:24:40;4.55;;;3.33;;
6626;SDS011;3349;49.830;8.748;2023-04-24T08:27:07;4.07;;;3.22;;
6626;SDS011;3349;49.830;8.748;2023-04-24T08:29:34;4.10;;;2.90;;
6626;SDS011;3349;49.830;8.748;2023-04-24T08:32:02;4.43;;;2.67;;
6626;SDS011;3349;49.830;8.748;2023-04-24T08:34:29;3.63;;;2.83;;
6626;SDS011;3349;49.830;8.748;2023-04-24T08:36:56;4.78;;;3.13;;
6626;SDS011;3349;49.830;8.748;2023-04-24T08:39:23;4.30;;;3.78;;
6626;SDS011;3349;49.830;8.748;2023-04-24T08:41:49;4.85;;;3.17;;
6626;SDS011;3349;49.830;8.748;2023-04-24T08:44:17;5.47;;;3.67;;
6626;SDS011;3349;49.830;8.748;2023-04-24T08:46:46;3.85;;;2.90;;
6626;SDS011;3349;49.830;8.748;2023-04-24T08:49:15;3.10;;;2.72;;
6626;SDS011;3349;49.830;8.748;2023-04-24T08:51:43;7.38;;;3.10;;
6626;SDS011;3349;49.830;8.748;2023-04-24T08:54:12;3.47;;;3.03;;
6626;SDS011;3349;49.830;8.748;2023-04-24T08:56:39;4.93;;;2.95;;
6626;SDS011;3349;49.830;8.748;2023-04-24T08:59:09;4.13;;;3.00;;
6626;SDS011;3349;49.830;8.748;2023-04-24T09:01:37;3.72;;;3.42;;
6626;SDS011;3349;49.830;8.748;2023-04-24T09:04:06;3.63;;;3.33;;
6626;SDS011;3349;49.830;8.748;2023-04-24T09:06:36;4.15;;;3.75;;
6626;SDS011;3349;49.830;8.748;2023-04-24T09:09:03;3.53;;;3.17;;
6626;SDS011;3349;49.830;8.748;2023-04-24T09:11:30;4.68;;;3.30;;
6626;SDS011;3349;49.830;8.748;2023-04-24T09:13:58;6.82;;;3.40;;
6626;SDS011;3349;49.830;8.748;2023-04-24T09:16:25;3.80;;;3.20;;
6626;SDS011;3349;49.830;8.748;2023-04-24T09:18:52;6.78;;;4.35;;
6626;SDS011;3349;49.830;8.748;2023-04-24T09:21:20;3.72;;;3.15;;
6626;SDS011;3349;49.830;8.748;2023-04-24T09:23:58;4.75;;;3.47;;
6626;SDS011;3349;49.830;8.748;2023-04-24T09:26:25;5.85;;;3.92;;
6626;SDS011;3349;49.830;8.748;2023-04-24T09:28:56;4.72;;;2.88;;
6626;SDS011;3349;49.830;8.748;2023-04-24T09:31:23;9.50;;;5.95;;
6626;SDS011;3349;49.830;8.748;2023-04-24T09:33:56;6.88;;;4.93;;
6626;SDS011;3349;49.830;8.748;2023-04-24T09:36:27;4.32;;;3.30;;
6626;SDS011;3349;49.830;8.748;2023-04-24T09:38:59;7.90;;;3.30;;
6626;SDS011;3349;49.830;8.748;2023-04-24T09:41:27;4.10;;;3.20;;
6626;SDS011;3349;49.830;8.748;2023-04-24T09:43:54;3.60;;;3.30;;
6626;SDS011;3349;49.830;8.748;2023-04-24T09:46:28;3.55;;;3.25;;
6626;SDS011;3349;49.830;8.748;2023-04-24T09:48:56;5.43;;;3.22;;
6626;SDS011;3349;49.830;8.748;2023-04-24T09:51:33;4.40;;;3.35;;
6626;SDS011;3349;49.830;8.748;2023-04-24T09:54:02;5.38;;;4.28;;
6626;SDS011;3349;49.830;8.748;2023-04-24T09:56:32;5.82;;;3.90;;
6626;SDS011;3349;49.830;8.748;2023-04-24T09:59:04;5.72;;;3.80;;
6626;SDS011;3349;49.830;8.748;2023-04-24T10:01:31;5.88;;;3.55;;
6626;SDS011;3349;49.830;8.748;2023-04-24T10:03:58;5.22;;;3.60;;
6626;SDS011;3349;49.830;8.748;2023-04-24T10:06:29;4.15;;;3.50;;
6626;SDS011;3349;49.830;8.748;2023-04-24T10:08:59;7.10;;;4.07;;
6626;SDS011;3349;49.830;8.748;2023-04-24T10:11:27;4.05;;;3.28;;
6626;SDS011;3349;49.830;8.748;2023-04-24T10:13:54;5.65;;;3.83;;
6626;SDS011;3349;49.830;8.748;2023-04-24T10:16:22;4.85;;;3.40;;
6626;SDS011;3349;49.830;8.748;2023-04-24T10:18:49;4.90;;;3.38;;
6626;SDS011;3349;49.830;8.748;2023-04-24T10:21:17;6.47;;;3.60;;
6626;SDS011;3349;49.830;8.748;2023-04-24T10:23:43;4.03;;;3.50;;
6626;SDS011;3349;49.830;8.748;2023-04-24T10:26:12;4.70;;;3.20;;
6626;SDS011;3349;49.830;8.748;2023-04-24T10:28:44;4.63;;;3.55;;
6626;SDS011;3349;49.830;8.748;2023-04-24T10:31:11;4.97;;;3.58;;
6626;SDS011;3349;49.830;8.748;2023-04-24T10:33:39;6.18;;;3.10;;
6626;SDS011;3349;49.830;8.748;2023-04-24T10:36:07;4.25;;;2.63;;
6626;SDS011;3349;49.830;8.748;2023-04-24T10:38:35;5.70;;;2.70;;
6626;SDS011;3349;49.830;8.748;2023-04-24T10:41:08;3.30;;;2.80;;
6626;SDS011;3349;49.830;8.748;2023-04-24T10:43:40;3.40;;;2.70;;
6626;SDS011;3349;49.830;8.748;2023-04-24T10:46:09;4.80;;;2.92;;
6626;SDS011;3349;49.830;8.748;2023-04-24T10:48:41;3.05;;;2.80;;
6626;SDS011;3349;49.830;8.748;2023-04-24T10:51:11;5.03;;;3.20;;
6626;SDS011;3349;49.830;8.748;2023-04-24T10:53:38;3.85;;;3.00;;
6626;SDS011;3349;49.830;8.748;2023-04-24T10:56:05;3.50;;;3.05;;
6626;SDS011;3349;49.830;8.748;2023-04-24T10:58:38;5.10;;;2.70;;
6626;SDS011;3349;49.830;8.748;2023-04-24T11:01:13;3.92;;;3.08;;
6626;SDS011;3349;49.830;8.748;2023-04-24T11:03:50;4.03;;;3.00;;
6626;SDS011;3349;49.830;8.748;2023-04-24T11:06:27;4.63;;;3.03;;
6626;SDS011;3349;49.830;8.748;2023-04-24T11:08:59;3.30;;;3.00;;
6626;SDS011;3349;49.830;8.748;2023-04-24T11:11:29;5.82;;;3.15;;
6626;SDS011;3349;49.830;8.748;2023-04-24T11:14:09;3.53;;;3.22;;
6626;SDS011;3349;49.830;8.748;2023-04-24T11:16:42;3.42;;;3.08;;
6626;SDS011;3349;49.830;8.748;2023-04-24T11:19:17;4.00;;;2.85;;
6626;SDS011;3349;49.830;8.748;2023-04-24T11:21:47;5.65;;;3.10;;
6626;SDS011;3349;49.830;8.748;2023-04-24T11:24:23;3.38;;;3.08;;
6626;SDS011;3349;49.830;8.748;2023-04-24T11:26:51;3.70;;;2.83;;
6626;SDS011;3349;49.830;8.748;2023-04-24T11:29:19;4.13;;;2.97;;
6626;SDS011;3349;49.830;8.748;2023-04-24T11:31:48;5.70;;;2.75;;
6626;SDS011;3349;49.830;8.748;2023-04-24T11:34:16;3.70;;;2.95;;
6626;SDS011;3349;49.830;8.748;2023-04-24T11:36:44;4.18;;;2.97;;
6626;SDS011;3349;49.830;8.748;2023-04-24T11:39:11;3.20;;;2.85;;
6626;SDS011;3349;49.830;8.748;2023-04-24T11:41:38;4.13;;;3.00;;
6626;SDS011;3349;49.830;8.748;2023-04-24T11:44:06;6.35;;;3.78;;
6626;SDS011;3349;49.830;8.748;2023-04-24T11:46:33;5.10;;;3.67;;
6626;SDS011;3349;49.830;8.748;2023-04-24T11:49:04;7.35;;;4.25;;
6626;SDS011;3349;49.830;8.748;2023-04-24T11:51:31;3.97;;;3.38;;
6626;SDS011;3349;49.830;8.748;2023-04-24T11:53:58;3.85;;;3.50;;
6626;SDS011;3349;49.830;8.748;2023-04-24T11:56:25;6.30;;;4.20;;
6626;SDS011;3349;49.830;8.748;2023-04-24T11:58:52;4.35;;;3.03;;
6626;SDS011;3349;49.830;8.748;2023-04-24T12:01:19;6.30;;;3.40;;
6626;SDS011;3349;49.830;8.748;2023-04-24T12:03:47;3.60;;;3.28;;
6626;SDS011;3349;49.830;8.748;2023-04-24T12:06:17;3.83;;;3.40;;
6626;SDS011;3349;49.830;8.748;2023-04-24T12:08:48;3.60;;;3.30;;
6626;SDS011;3349;49.830;8.748;2023-04-24T12:11:15;4.22;;;3.35;;
6626;SDS011;3349;49.830;8.748;2023-04-24T12:13:44;3.88;;;3.40;;
6626;SDS011;3349;49.830;8.748;2023-04-24T12:16:11;6.03;;;3.83;;
6626;SDS011;3349;49.830;8.748;2023-04-24T12:18:41;6.97;;;4.03;;
6626;SDS011;3349;49.830;8.748;2023-04-24T12:21:17;4.53;;;3.75;;
6626;SDS011;3349;49.830;8.748;2023-04-24T12:23:45;5.10;;;3.95;;
6626;SDS011;3349;49.830;8.748;2023-04-24T12:26:14;5.15;;;3.40;;
6626;SDS011;3349;49.830;8.748;2023-04-24T12:28:45;4.70;;;3.50;;
6626;SDS011;3349;49.830;8.748;2023-04-24T12:31:14;4.18;;;3.10;;
6626;SDS011;3349;49.830;8.748;2023-04-24T12:33:41;3.45;;;3.13;;
6626;SDS011;3349;49.830;8.748;2023-04-24T12:36:09;5.10;;;3.08;;
6626;SDS011;3349;49.830;8.748;2023-04-24T12:38:38;3.70;;;3.40;;
6626;SDS011;3349;49.830;8.748;2023-04-24T12:41:10;4.63;;;3.50;;
6626;SDS011;3349;49.830;8.748;2023-04-24T12:43:38;4.15;;;3.58;;
6626;SDS011;3349;49.830;8.748;2023-04-24T12:46:04;4.03;;;3.63;;
6626;SDS011;3349;49.830;8.748;2023-04-24T12:48:31;4.45;;;3.92;;
6626;SDS011;3349;49.830;8.748;2023-04-24T12:50:58;4.03;;;3.63;;
6626;SDS011;3349;49.830;8.748;2023-04-24T12:53:26;4.72;;;4.03;;
6626;SDS011;3349;49.830;8.748;2023-04-24T12:55:56;6.78;;;4.43;;
6626;SDS011;3349;49.830;8.748;2023-04-24T12:58:23;6.72;;;4.22;;
6626;SDS011;3349;49.830;8.748;2023-04-24T13:00:50;6.50;;;3.88;;
6626;SDS011;3349;49.830;8.748;2023-04-24T13:03:17;4.55;;;3.85;;
6626;SDS011;3349;49.830;8.748;2023-04-24T13:05:44;5.32;;;4.13;;
6626;SDS011;3349;49.830;8.748;2023-04-24T13:08:10;6.43;;;4.07;;
6626;SDS011;3349;49.830;8.748;2023-04-24T13:10:38;5.50;;;4.30;;
6626;SDS011;3349;49.830;8.748;2023-04-24T13:13:07;4.65;;;4.10;;
6626;SDS011;3349;49.830;8.748;2023-04-24T13:15:34;6.53;;;4.18;;
6626;SDS011;3349;49.830;8.748;2023-04-24T13:18:01;8.27;;;4.55;;
6626;SDS011;3349;49.830;8.748;2023-04-24T13:20:28;4.35;;;3.95;;
6626;SDS011;3349;49.830;8.748;2023-04-24T13:22:55;5.50;;;3.90;;
6626;SDS011;3349;49.830;8.748;2023-04-24T13:25:22;4.53;;;3.80;;
6626;SDS011;3349;49.830;8.748;2023-04-24T13:27:49;7.35;;;4.00;;
6626;SDS011;3349;49.830;8.748;2023-04-24T13:30:18;7.47;;;4.03;;
6626;SDS011;3349;49.830;8.748;2023-04-24T13:32:45;6.13;;;4.10;;
6626;SDS011;3349;49.830;8.748;2023-04-24T13:35:11;5.45;;;4.28;;
6626;SDS011;3349;49.830;8.748;2023-04-24T13:37:38;5.35;;;3.70;;
6626;SDS011;3349;49.830;8.748;2023-04-24T13:40:05;3.97;;;3.50;;
6626;SDS011;3349;49.830;8.748;2023-04-24T13:42:33;6.10;;;3.90;;
6626;SDS011;3349;49.830;8.748;2023-04-24T13:45:00;4.43;;;4.03;;
6626;SDS011;3349;49.830;8.748;2023-04-24T13:47:28;4.15;;;3.55;;
6626;SDS011;3349;49.830;8.748;2023-04-24T13:49:55;6.05;;;3.78;;
6626;SDS011;3349;49.830;8.748;2023-04-24T13:52:21;6.10;;;3.53;;
6626;SDS011;3349;49.830;8.748;2023-04-24T13:54:48;5.13;;;3.85;;
6626;SDS011;3349;49.830;8.748;2023-04-24T13:57:15;4.30;;;3.60;;
6626;SDS011;3349;49.830;8.748;2023-04-24T13:59:42;5.55;;;3.88;;
6626;SDS011;3349;49.830;8.748;2023-04-24T14:02:10;5.90;;;4.28;;
6626;SDS011;3349;49.830;8.748;2023-04-24T14:04:38;4.65;;;3.60;;
6626;SDS011;3349;49.830;8.748;2023-04-24T14:07:05;6.53;;;3.67;;
6626;SDS011;3349;49.830;8.748;2023-04-24T14:09:33;5.60;;;3.78;;
6626;SDS011;3349;49.830;8.748;2023-04-24T14:12:00;4.40;;;4.00;;
6626;SDS011;3349;49.830;8.748;2023-04-24T14:14:28;5.63;;;3.75;;
6626;SDS011;3349;49.830;8.748;2023-04-24T14:16:55;9.38;;;4.57;;
6626;SDS011;3349;49.830;8.748;2023-04-24T14:19:22;5.57;;;3.95;;
6626;SDS011;3349;49.830;8.748;2023-04-24T14:21:50;7.20;;;4.53;;
6626;SDS011;3349;49.830;8.748;2023-04-24T14:24:17;7.72;;;4.88;;
6626;SDS011;3349;49.830;8.748;2023-04-24T14:26:44;5.05;;;4.25;;
6626;SDS011;3349;49.830;8.748;2023-04-24T14:29:11;5.63;;;4.22;;
6626;SDS011;3349;49.830;8.748;2023-04-24T14:31:38;7.30;;;4.07;;
6626;SDS011;3349;49.830;8.748;2023-04-24T14:34:05;5.60;;;3.83;;
6626;SDS011;3349;49.830;8.748;2023-04-24T14:36:32;4.10;;;3.70;;
6626;SDS011;3349;49.830;8.748;2023-04-24T14:39:00;5.57;;;3.80;;
6626;SDS011;3349;49.830;8.748;2023-04-24T14:41:31;4.00;;;3.30;;
6626;SDS011;3349;49.830;8.748;2023-04-24T14:44:00;4.60;;;3.78;;
6626;SDS011;3349;49.830;8.748;2023-04-24T14:46:27;5.07;;;3.85;;
6626;SDS011;3349;49.830;8.748;2023-04-24T14:48:54;7.10;;;3.90;;
6626;SDS011;3349;49.830;8.748;2023-04-24T14:51:22;5.32;;;3.97;;
6626;SDS011;3349;49.830;8.748;2023-04-24T14:53:48;4.47;;;3.63;;
6626;SDS011;3349;49.830;8.748;2023-04-24T14:56:17;4.05;;;3.65;;
6626;SDS011;3349;49.830;8.748;2023-04-24T14:58:44;5.05;;;3.78;;
6626;SDS011;3349;49.830;8.748;2023-04-24T15:01:11;5.25;;;4.00;;
6626;SDS011;3349;49.830;8.748;2023-04-24T15:03:38;7.60;;;4.80;;
6626;SDS011;3349;49.830;8.748;2023-04-24T15:06:05;3.70;;;3.40;;
6626;SDS011;3349;49.830;8.748;2023-04-24T15:08:32;8.23;;;3.92;;
6626;SDS011;3349;49.830;8.748;2023-04-24T15:10:59;4.15;;;3.08;;
6626;SDS011;3349;49.830;8.748;2023-04-24T15:13:27;4.22;;;3.80;;
6626;SDS011;3349;49.830;8.748;2023-04-24T15:15:54;4.10;;;3.30;;
6626;SDS011;3349;49.830;8.748;2023-04-24T15:18:21;6.55;;;4.13;;